createdAt,value
2018-04-08T00:01:18.208Z,3.60
2018-04-08T00:03:44.541Z,3.23
2018-04-08T00:06:10.888Z,3.77
2018-04-08T00:08:37.273Z,3.77
2018-04-08T00:11:03.598Z,3.90
2018-04-08T00:13:29.967Z,3.27
2018-04-08T00:15:56.344Z,3.60
2018-04-08T00:18:22.711Z,3.40
2018-04-08T00:20:49.199Z,3.27
2018-04-08T00:23:15.642Z,3.73
2018-04-08T00:25:41.969Z,3.30
2018-04-08T00:28:08.285Z,4.00
2018-04-08T00:30:34.609Z,3.70
2018-04-08T00:33:00.947Z,3.77
2018-04-08T00:35:27.269Z,3.83
2018-04-08T00:37:53.692Z,4.20
2018-04-08T00:40:20.047Z,3.60
2018-04-08T00:42:46.462Z,3.23
2018-04-08T00:45:12.850Z,3.30
2018-04-08T00:47:39.262Z,3.17
2018-04-08T00:50:05.631Z,3.30
2018-04-08T00:52:32.057Z,3.47
2018-04-08T00:54:58.389Z,3.97
2018-04-08T00:57:24.734Z,3.60
2018-04-08T00:59:51.059Z,3.53
2018-04-08T01:02:17.383Z,3.50
2018-04-08T01:04:43.755Z,3.47
2018-04-08T01:07:10.105Z,3.30
2018-04-08T01:09:36.513Z,3.30
2018-04-08T01:12:02.907Z,3.10
2018-04-08T01:14:29.245Z,3.50
2018-04-08T01:16:55.688Z,3.40
2018-04-08T01:19:22.010Z,3.23
2018-04-08T01:21:48.338Z,3.60
2018-04-08T01:24:14.702Z,3.10
2018-04-08T01:29:13.578Z,2.90
2018-04-08T01:31:40.074Z,2.90
2018-04-08T01:34:06.517Z,3.50
2018-04-08T01:36:32.963Z,2.80
2018-04-08T01:38:59.312Z,3.47
2018-04-08T01:41:25.675Z,4.33
2018-04-08T01:43:52.000Z,3.40
2018-04-08T01:46:18.331Z,3.00
2018-04-08T01:48:44.816Z,3.97
2018-04-08T01:51:11.218Z,3.40
2018-04-08T01:53:37.729Z,3.47
2018-04-08T01:56:04.073Z,3.30
2018-04-08T01:58:30.391Z,2.93
2018-04-08T02:00:56.783Z,3.70
2018-04-08T02:03:23.296Z,3.30
2018-04-08T02:05:49.650Z,3.50
2018-04-08T02:08:16.008Z,5.00
2018-04-08T02:10:42.374Z,3.10
2018-04-08T02:13:08.744Z,3.30
2018-04-08T02:15:35.116Z,3.50
2018-04-08T02:18:01.445Z,3.73
2018-04-08T02:20:27.792Z,3.30
2018-04-08T02:22:54.302Z,3.10
2018-04-08T02:25:20.788Z,3.20
2018-04-08T02:27:47.115Z,3.40
2018-04-08T02:30:13.446Z,3.20
2018-04-08T02:32:39.785Z,2.90
2018-04-08T02:35:06.186Z,3.30
2018-04-08T02:37:32.662Z,3.57
2018-04-08T02:39:59.217Z,3.57
2018-04-08T02:42:25.547Z,3.03
2018-04-08T02:44:51.887Z,3.47
2018-04-08T02:47:18.209Z,3.27
2018-04-08T02:49:44.586Z,2.90
2018-04-08T02:52:11.019Z,3.43
2018-04-08T02:54:37.452Z,3.10
2018-04-08T02:57:03.964Z,3.17
2018-04-08T02:59:30.297Z,3.43
2018-04-08T03:01:56.675Z,3.03
2018-04-08T03:04:23.188Z,3.30
2018-04-08T03:06:49.526Z,3.10
2018-04-08T03:09:15.892Z,3.40
2018-04-08T03:11:42.346Z,2.90
2018-04-08T03:14:08.710Z,3.20
2018-04-08T03:16:35.159Z,3.20
2018-04-08T03:19:01.539Z,3.17
2018-04-08T03:21:27.948Z,3.10
2018-04-08T03:23:54.485Z,3.60
2018-04-08T03:26:20.993Z,3.37
2018-04-08T03:28:47.320Z,3.17
2018-04-08T03:31:13.654Z,3.27
2018-04-08T03:33:40.025Z,3.43
2018-04-08T03:36:06.394Z,3.37
2018-04-08T03:38:32.922Z,3.67
2018-04-08T03:40:59.448Z,3.07
2018-04-08T03:43:25.795Z,3.40
2018-04-08T03:45:52.340Z,2.80
2018-04-08T03:48:18.848Z,3.40
2018-04-08T03:50:45.224Z,2.80
2018-04-08T03:53:11.580Z,3.37
2018-04-08T03:55:38.046Z,3.40
2018-04-08T03:58:04.393Z,3.20
2018-04-08T04:00:30.810Z,2.70
2018-04-08T04:02:57.646Z,2.83
2018-04-08T04:05:24.023Z,3.13
2018-04-08T04:07:50.483Z,3.33
2018-04-08T04:10:17.031Z,3.23
2018-04-08T04:12:43.369Z,3.33
2018-04-08T04:15:09.701Z,3.50
2018-04-08T04:17:36.253Z,3.83
2018-04-08T04:20:02.590Z,3.40
2018-04-08T04:22:28.946Z,3.77
2018-04-08T04:24:55.311Z,3.00
2018-04-08T04:27:21.638Z,3.23
2018-04-08T04:29:48.078Z,2.80
2018-04-08T04:32:14.459Z,3.10
2018-04-08T04:34:40.802Z,2.97
2018-04-08T04:37:07.313Z,3.37
2018-04-08T04:39:33.640Z,3.57
2018-04-08T04:41:59.960Z,2.90
2018-04-08T04:44:26.309Z,3.27
2018-04-08T04:46:52.668Z,3.40
2018-04-08T04:49:19.002Z,3.80
2018-04-08T04:51:45.328Z,3.30
2018-04-08T04:54:11.722Z,3.23
2018-04-08T04:56:38.041Z,3.00
2018-04-08T04:59:04.414Z,3.10
2018-04-08T05:01:30.809Z,3.20
2018-04-08T05:03:57.225Z,3.33
2018-04-08T05:06:23.760Z,3.50
2018-04-08T05:08:50.084Z,3.53
2018-04-08T05:11:16.457Z,3.47
2018-04-08T05:13:42.905Z,3.53
2018-04-08T05:16:09.290Z,3.40
2018-04-08T05:18:35.636Z,3.00
2018-04-08T05:21:01.987Z,3.50
2018-04-08T05:23:28.354Z,3.27
2018-04-08T05:25:54.705Z,3.60
2018-04-08T05:28:21.332Z,3.10
2018-04-08T05:30:47.652Z,3.50
2018-04-08T05:33:14.073Z,3.47
2018-04-08T05:35:40.596Z,3.97
2018-04-08T05:38:07.097Z,3.33
2018-04-08T05:40:33.435Z,3.20
2018-04-08T05:42:59.745Z,3.40
2018-04-08T05:45:26.074Z,3.13
2018-04-08T05:47:52.406Z,3.67
2018-04-08T05:50:18.861Z,3.73
2018-04-08T05:52:45.295Z,3.50
2018-04-08T05:55:11.617Z,3.50
2018-04-08T05:57:37.998Z,3.50
2018-04-08T06:00:04.423Z,3.30
2018-04-08T06:02:30.741Z,3.30
2018-04-08T06:04:57.123Z,3.23
2018-04-08T06:07:23.737Z,3.40
2018-04-08T06:09:50.074Z,3.30
2018-04-08T06:12:16.411Z,2.80
2018-04-08T06:14:42.818Z,3.53
2018-04-08T06:17:09.177Z,3.37
2018-04-08T06:19:35.567Z,3.20
2018-04-08T06:22:01.931Z,3.30
2018-04-08T06:24:28.284Z,3.60
2018-04-08T06:26:54.649Z,3.20
2018-04-08T06:29:20.962Z,3.47
2018-04-08T06:31:47.340Z,3.93
2018-04-08T06:34:13.668Z,3.63
2018-04-08T06:36:40.227Z,4.43
2018-04-08T06:39:06.787Z,3.23
2018-04-08T06:41:33.117Z,3.27
2018-04-08T06:43:59.441Z,3.30
2018-04-08T06:46:25.773Z,3.47
2018-04-08T06:48:52.204Z,4.23
2018-04-08T06:51:18.539Z,3.43
2018-04-08T06:53:45.048Z,3.70
2018-04-08T06:56:11.424Z,3.60
2018-04-08T06:58:37.785Z,3.73
2018-04-08T07:01:04.143Z,3.43
2018-04-08T07:03:30.466Z,3.87
2018-04-08T07:05:56.795Z,3.57
2018-04-08T07:08:23.515Z,3.87
2018-04-08T07:10:49.852Z,3.57
2018-04-08T07:13:16.185Z,3.67
2018-04-08T07:15:42.706Z,3.40
2018-04-08T07:18:09.057Z,3.20
2018-04-08T07:20:35.400Z,3.13
2018-04-08T07:23:01.788Z,3.50
2018-04-08T07:25:28.222Z,3.53
2018-04-08T07:27:54.554Z,3.70
2018-04-08T07:30:20.898Z,3.80
2018-04-08T07:32:47.322Z,3.20
2018-04-08T07:35:13.705Z,3.73
2018-04-08T07:37:40.037Z,3.73
2018-04-08T07:40:06.409Z,3.40
2018-04-08T07:42:32.794Z,3.37
2018-04-08T07:44:59.128Z,3.27
2018-04-08T07:47:25.438Z,3.50
2018-04-08T07:49:51.862Z,3.70
2018-04-08T07:52:18.220Z,3.37
2018-04-08T07:54:44.550Z,3.47
2018-04-08T07:57:10.908Z,3.57
2018-04-08T07:59:37.361Z,3.97
2018-04-08T08:02:03.778Z,4.23
2018-04-08T08:04:30.090Z,3.90
2018-04-08T08:06:56.458Z,3.50
2018-04-08T08:09:22.798Z,3.90
2018-04-08T08:11:49.147Z,3.73
2018-04-08T08:14:15.492Z,3.30
2018-04-08T08:16:41.810Z,3.87
2018-04-08T08:19:08.204Z,3.60
2018-04-08T08:21:34.559Z,4.37
2018-04-08T08:24:00.882Z,3.80
2018-04-08T08:26:27.225Z,3.73
2018-04-08T08:28:53.573Z,3.50
2018-04-08T08:31:19.893Z,3.47
2018-04-08T08:33:46.254Z,3.70
2018-04-08T08:36:12.626Z,3.97
2018-04-08T08:38:39.006Z,3.63
2018-04-08T08:41:05.354Z,3.70
2018-04-08T08:43:31.721Z,3.40
2018-04-08T08:45:58.132Z,4.73
2018-04-08T08:48:24.450Z,3.70
2018-04-08T08:50:50.873Z,3.80
2018-04-08T08:53:17.227Z,3.27
2018-04-08T08:55:43.640Z,3.80
2018-04-08T08:58:09.968Z,3.83
2018-04-08T09:00:36.451Z,3.90
2018-04-08T09:03:02.898Z,4.07
2018-04-08T09:05:29.313Z,3.63
2018-04-08T09:07:55.625Z,3.50
2018-04-08T09:10:21.983Z,3.37
2018-04-08T09:12:48.297Z,3.40
2018-04-08T09:15:14.663Z,3.77
2018-04-08T09:17:41.032Z,3.83
2018-04-08T09:20:07.394Z,3.60
2018-04-08T09:22:33.715Z,3.83
2018-04-08T09:25:00.071Z,3.40
2018-04-08T09:27:26.382Z,5.40
2018-04-08T09:29:52.709Z,3.70
2018-04-08T09:32:19.082Z,3.63
2018-04-08T09:34:45.469Z,3.53
2018-04-08T09:37:11.855Z,3.57
2018-04-08T09:39:38.238Z,3.70
2018-04-08T09:42:04.597Z,3.80
2018-04-08T09:44:30.965Z,3.63
2018-04-08T09:46:57.334Z,3.70
2018-04-08T09:49:23.710Z,3.70
2018-04-08T09:51:50.135Z,3.97
2018-04-08T09:54:16.638Z,3.90
2018-04-08T09:56:43.042Z,3.93
2018-04-08T09:59:09.418Z,3.90
2018-04-08T10:01:35.892Z,4.13
2018-04-08T10:04:02.310Z,3.40
2018-04-08T10:06:28.693Z,3.90
2018-04-08T10:08:55.074Z,4.20
2018-04-08T10:11:21.495Z,3.47
2018-04-08T10:13:47.849Z,4.17
2018-04-08T10:16:14.175Z,3.87
2018-04-08T10:18:40.583Z,3.70
2018-04-08T10:21:07.013Z,3.50
2018-04-08T10:23:33.357Z,3.57
2018-04-08T10:28:32.126Z,3.70
2018-04-08T10:30:58.457Z,3.67
2018-04-08T10:33:24.821Z,3.50
2018-04-08T10:35:51.267Z,3.70
2018-04-08T10:38:17.623Z,3.40
2018-04-08T10:40:44.014Z,3.80
2018-04-08T10:43:10.361Z,3.60
2018-04-08T10:45:36.697Z,3.80
2018-04-08T10:48:03.186Z,3.30
2018-04-08T10:50:29.501Z,4.00
2018-04-08T10:52:55.809Z,3.37
2018-04-08T10:55:22.184Z,3.40
2018-04-08T10:57:48.494Z,3.27
2018-04-08T11:00:14.846Z,3.23
2018-04-08T11:02:41.209Z,3.57
2018-04-08T11:05:07.685Z,3.80
2018-04-08T11:07:34.013Z,4.10
2018-04-08T11:10:00.414Z,3.60
2018-04-08T11:12:26.738Z,3.37
2018-04-08T11:14:53.234Z,3.47
2018-04-08T11:17:19.600Z,3.60
2018-04-08T11:19:45.974Z,3.60
2018-04-08T11:22:12.301Z,3.43
2018-04-08T11:24:38.626Z,3.70
2018-04-08T11:27:04.962Z,3.67
2018-04-08T11:29:31.341Z,4.00
2018-04-08T11:31:57.693Z,3.50
2018-04-08T11:34:24.070Z,3.90
2018-04-08T11:36:50.404Z,3.60
2018-04-08T11:39:16.785Z,3.57
2018-04-08T11:41:43.174Z,4.53
2018-04-08T11:44:09.522Z,3.90
2018-04-08T11:46:35.898Z,3.53
2018-04-08T11:49:02.320Z,3.60
2018-04-08T11:51:28.782Z,3.63
2018-04-08T11:53:55.117Z,4.17
2018-04-08T11:56:21.529Z,3.47
2018-04-08T11:58:47.906Z,3.57
2018-04-08T12:01:14.246Z,3.80
2018-04-08T12:03:40.668Z,3.87
2018-04-08T12:06:07.030Z,3.87
2018-04-08T12:08:33.438Z,3.80
2018-04-08T12:10:59.814Z,3.73
2018-04-08T12:13:26.147Z,3.57
2018-04-08T12:15:52.515Z,3.30
2018-04-08T12:18:18.961Z,3.67
2018-04-08T12:20:45.360Z,3.90
2018-04-08T12:23:11.714Z,3.90
2018-04-08T12:25:38.198Z,3.47
2018-04-08T12:28:04.527Z,3.67
2018-04-08T12:30:30.883Z,3.70
2018-04-08T12:32:57.267Z,4.80
2018-04-08T12:35:23.605Z,3.73
2018-04-08T12:37:49.963Z,3.63
2018-04-08T12:40:16.306Z,4.07
2018-04-08T12:42:42.672Z,3.50
2018-04-08T12:45:09.003Z,3.77
2018-04-08T12:47:35.382Z,3.20
2018-04-08T12:50:01.718Z,3.83
2018-04-08T12:52:28.119Z,4.40
2018-04-08T12:54:54.465Z,3.33
2018-04-08T12:57:20.796Z,3.03
2018-04-08T12:59:47.153Z,3.60
2018-04-08T13:02:13.530Z,3.60
2018-04-08T13:04:39.922Z,3.60
2018-04-08T13:07:06.235Z,3.60
2018-04-08T13:09:32.681Z,3.50
2018-04-08T13:11:59.050Z,3.20
2018-04-08T13:14:25.401Z,3.40
2018-04-08T13:16:51.868Z,3.60
2018-04-08T13:19:18.270Z,3.13
2018-04-08T13:21:44.598Z,3.80
2018-04-08T13:24:11.014Z,4.13
2018-04-08T13:26:37.502Z,3.40
2018-04-08T13:29:03.876Z,3.50
2018-04-08T13:31:30.198Z,3.57
2018-04-08T13:33:56.518Z,4.67
2018-04-08T13:36:22.888Z,3.40
2018-04-08T13:38:49.258Z,3.33
2018-04-08T13:41:15.587Z,3.70
2018-04-08T13:43:41.928Z,4.13
2018-04-08T13:46:08.401Z,3.30
2018-04-08T13:48:34.714Z,3.23
2018-04-08T13:51:01.086Z,3.60
2018-04-08T13:53:27.423Z,3.67
2018-04-08T13:55:53.790Z,3.37
2018-04-08T13:58:20.109Z,3.63
2018-04-08T14:00:46.483Z,3.70
2018-04-08T14:03:12.807Z,3.70
2018-04-08T14:05:39.116Z,3.87
2018-04-08T14:08:05.507Z,3.63
2018-04-08T14:10:31.837Z,3.37
2018-04-08T14:12:58.254Z,3.67
2018-04-08T14:15:24.610Z,3.63
2018-04-08T14:17:51.021Z,3.97
2018-04-08T14:20:17.428Z,3.40
2018-04-08T14:22:43.778Z,3.67
2018-04-08T14:25:10.114Z,4.03
2018-04-08T14:27:36.472Z,3.33
2018-04-08T14:30:02.877Z,3.97
2018-04-08T14:32:29.276Z,3.70
2018-04-08T14:34:55.635Z,4.90
2018-04-08T14:37:21.965Z,3.40
2018-04-08T14:39:48.294Z,3.80
2018-04-08T14:42:14.621Z,3.17
2018-04-08T14:44:40.940Z,4.00
2018-04-08T14:47:07.364Z,3.83
2018-04-08T14:49:33.815Z,4.20
2018-04-08T14:52:00.187Z,3.97
2018-04-08T14:54:26.518Z,4.13
2018-04-08T14:56:52.957Z,3.50
2018-04-08T14:59:19.286Z,4.20
2018-04-08T15:01:46.798Z,3.10
2018-04-08T15:04:11.969Z,3.50
2018-04-08T15:06:38.306Z,3.60
2018-04-08T15:09:04.662Z,3.80
2018-04-08T15:11:30.994Z,3.60
2018-04-08T15:13:57.309Z,3.90
2018-04-08T15:16:23.665Z,3.73
2018-04-08T15:18:49.999Z,3.70
2018-04-08T15:21:16.395Z,3.30
2018-04-08T15:23:42.788Z,3.87
2018-04-08T15:26:09.113Z,3.60
2018-04-08T15:28:35.435Z,3.67
2018-04-08T15:31:01.752Z,3.63
2018-04-08T15:33:28.214Z,3.70
2018-04-08T15:35:54.533Z,4.07
2018-04-08T15:38:20.919Z,3.60
2018-04-08T15:40:47.243Z,3.70
2018-04-08T15:43:13.593Z,3.90
2018-04-08T15:45:39.974Z,3.93
2018-04-08T15:48:06.311Z,3.70
2018-04-08T15:50:32.800Z,3.80
2018-04-08T15:52:59.197Z,3.97
2018-04-08T15:55:25.580Z,3.70
2018-04-08T15:57:51.985Z,4.03
2018-04-08T16:00:18.304Z,3.70
2018-04-08T16:02:44.694Z,3.93
2018-04-08T16:05:10.978Z,3.50
2018-04-08T16:07:37.423Z,3.53
2018-04-08T16:10:03.735Z,3.40
2018-04-08T16:12:30.105Z,3.90
2018-04-08T16:14:56.414Z,4.17
2018-04-08T16:17:22.928Z,4.07
2018-04-08T16:19:49.245Z,4.03
2018-04-08T16:22:15.649Z,3.70
2018-04-08T16:24:42.001Z,4.00
2018-04-08T16:27:08.465Z,3.50
2018-04-08T16:29:34.799Z,4.07
2018-04-08T16:32:01.177Z,4.07
2018-04-08T16:34:27.493Z,4.13
2018-04-08T16:36:53.866Z,3.47
2018-04-08T16:39:20.177Z,4.40
2018-04-08T16:41:46.505Z,3.77
2018-04-08T16:44:12.843Z,3.87
2018-04-08T16:46:39.160Z,3.83
2018-04-08T16:49:05.535Z,3.60
2018-04-08T16:51:31.866Z,3.90
2018-04-08T16:53:58.309Z,4.10
2018-04-08T16:56:24.660Z,4.00
2018-04-08T16:58:51.075Z,3.90
2018-04-08T17:01:17.458Z,3.63
2018-04-08T17:03:43.946Z,4.83
2018-04-08T17:06:10.285Z,3.90
2018-04-08T17:08:36.732Z,4.93
2018-04-08T17:11:03.155Z,3.77
2018-04-08T17:13:29.470Z,3.93
2018-04-08T17:15:55.795Z,4.27
2018-04-08T17:18:22.178Z,3.87
2018-04-08T17:20:48.511Z,3.77
2018-04-08T17:23:14.855Z,3.60
2018-04-08T17:25:41.181Z,4.47
2018-04-08T17:28:07.577Z,4.50
2018-04-08T17:30:33.973Z,4.17
2018-04-08T17:33:00.466Z,4.13
2018-04-08T17:35:26.901Z,4.40
2018-04-08T17:37:53.303Z,3.77
2018-04-08T17:40:19.683Z,4.27
2018-04-08T17:42:46.009Z,4.40
2018-04-08T17:45:12.331Z,4.43
2018-04-08T17:47:38.742Z,4.63
2018-04-08T17:50:05.172Z,4.80
2018-04-08T17:52:31.504Z,4.70
2018-04-08T17:54:57.847Z,4.30
2018-04-08T17:57:24.173Z,4.60
2018-04-08T17:59:50.509Z,4.47
2018-04-08T18:02:16.863Z,4.83
2018-04-08T18:04:43.201Z,4.20
2018-04-08T18:07:09.609Z,4.50
2018-04-08T18:09:35.929Z,4.20
2018-04-08T18:12:02.328Z,4.20
2018-04-08T18:14:28.741Z,4.50
2018-04-08T18:16:55.063Z,4.07
2018-04-08T18:19:21.519Z,4.60
2018-04-08T18:21:47.874Z,5.03
2018-04-08T18:24:14.235Z,4.60
2018-04-08T18:26:40.660Z,4.33
2018-04-08T18:29:07.044Z,4.90
2018-04-08T18:31:33.415Z,5.37
2018-04-08T18:33:59.747Z,4.50
2018-04-08T18:36:26.112Z,4.80
2018-04-08T18:38:52.559Z,4.13
2018-04-08T18:41:18.920Z,4.87
2018-04-08T18:43:45.250Z,4.70
2018-04-08T18:46:11.613Z,5.17
2018-04-08T18:48:37.997Z,4.23
2018-04-08T18:51:04.333Z,4.60
2018-04-08T18:53:30.707Z,4.70
2018-04-08T18:55:57.025Z,5.20
2018-04-08T18:58:23.422Z,4.57
2018-04-08T19:00:49.787Z,4.63
2018-04-08T19:03:16.149Z,4.67
2018-04-08T19:05:42.517Z,4.33
2018-04-08T19:08:08.851Z,4.90
2018-04-08T19:10:35.165Z,4.73
2018-04-08T19:13:01.489Z,4.30
2018-04-08T19:15:27.871Z,5.07
2018-04-08T19:17:54.330Z,5.10
2018-04-08T19:20:20.654Z,5.07
2018-04-08T19:22:47.008Z,4.63
2018-04-08T19:25:13.362Z,4.50
2018-04-08T19:27:39.706Z,4.60
2018-04-08T19:30:06.090Z,4.63
2018-04-08T19:32:32.478Z,4.60
2018-04-08T19:34:58.824Z,4.73
2018-04-08T19:37:25.176Z,4.60
2018-04-08T19:39:51.542Z,4.70
2018-04-08T19:42:18.038Z,4.30
2018-04-08T19:44:44.364Z,4.77
2018-04-08T19:47:10.838Z,4.47
2018-04-08T19:49:37.314Z,4.20
2018-04-08T19:52:03.677Z,4.40
2018-04-08T19:54:30.010Z,4.40
2018-04-08T19:56:56.323Z,4.13
2018-04-08T19:59:22.753Z,4.30
2018-04-08T20:01:49.062Z,4.40
2018-04-08T20:04:15.421Z,4.70
2018-04-08T20:06:41.741Z,4.53
2018-04-08T20:09:08.092Z,4.43
2018-04-08T20:11:34.434Z,4.10
2018-04-08T20:14:00.869Z,4.10
2018-04-08T20:16:27.224Z,4.10
2018-04-08T20:18:53.552Z,4.27
2018-04-08T20:21:19.902Z,4.73
2018-04-08T20:23:46.251Z,4.20
2018-04-08T20:26:12.566Z,4.80
2018-04-08T20:28:38.907Z,4.47
2018-04-08T20:31:05.372Z,4.30
2018-04-08T20:33:31.701Z,4.60
2018-04-08T20:35:58.018Z,3.83
2018-04-08T20:38:24.457Z,4.57
2018-04-08T20:40:50.781Z,4.23
2018-04-08T20:43:17.102Z,4.47
2018-04-08T20:45:43.435Z,4.40
2018-04-08T20:48:09.762Z,4.60
2018-04-08T20:50:36.171Z,4.10
2018-04-08T20:53:02.515Z,3.80
2018-04-08T20:55:28.897Z,4.50
2018-04-08T20:57:55.239Z,4.30
2018-04-08T21:00:21.602Z,4.23
2018-04-08T21:02:48.012Z,4.33
2018-04-08T21:05:14.406Z,3.63
2018-04-08T21:07:40.753Z,3.60
2018-04-08T21:10:07.156Z,3.90
2018-04-08T21:12:33.482Z,3.97
2018-04-08T21:14:59.804Z,4.23
2018-04-08T21:17:26.125Z,4.17
2018-04-08T21:19:52.566Z,4.60
2018-04-08T21:22:18.947Z,4.13
2018-04-08T21:24:45.293Z,3.93
2018-04-08T21:27:11.624Z,4.50
2018-04-08T21:29:37.949Z,3.90
2018-04-08T21:32:04.272Z,4.33
2018-04-08T21:34:30.612Z,4.47
2018-04-08T21:36:56.934Z,4.33
2018-04-08T21:39:23.273Z,3.80
2018-04-08T21:41:49.636Z,4.30
2018-04-08T21:44:15.991Z,4.43
2018-04-08T21:46:42.344Z,3.90
2018-04-08T21:49:08.680Z,4.20
2018-04-08T21:51:35.038Z,4.13
2018-04-08T21:54:01.376Z,4.30
2018-04-08T21:56:27.821Z,4.33
2018-04-08T21:58:54.178Z,3.83
2018-04-08T22:01:20.601Z,3.97
2018-04-08T22:03:46.929Z,3.93
2018-04-08T22:06:13.292Z,3.90
2018-04-08T22:08:39.704Z,4.20
2018-04-08T22:11:06.043Z,4.40
2018-04-08T22:13:32.501Z,4.10
2018-04-08T22:15:58.853Z,4.10
2018-04-08T22:18:25.216Z,4.03
2018-04-08T22:20:51.655Z,4.07
2018-04-08T22:23:17.993Z,4.10
2018-04-08T22:25:44.402Z,4.20
2018-04-08T22:28:10.755Z,4.10
2018-04-08T22:30:37.109Z,4.57
2018-04-08T22:33:03.541Z,3.73
2018-04-08T22:35:29.917Z,4.33
2018-04-08T22:37:56.238Z,4.80
2018-04-08T22:40:22.837Z,3.90
2018-04-08T22:42:49.262Z,4.37
2018-04-08T22:45:15.609Z,4.13
2018-04-08T22:47:41.977Z,3.57
2018-04-08T22:50:08.378Z,4.70
2018-04-08T22:52:34.802Z,4.10
2018-04-08T22:55:01.177Z,3.70
2018-04-08T22:57:27.558Z,4.13
2018-04-08T22:59:53.894Z,4.30
2018-04-08T23:02:20.269Z,4.10
2018-04-08T23:04:46.627Z,4.40
2018-04-08T23:07:12.978Z,4.20
2018-04-08T23:09:39.413Z,4.13
2018-04-08T23:12:05.798Z,3.97
2018-04-08T23:14:32.127Z,3.63
2018-04-08T23:16:58.506Z,3.93
2018-04-08T23:19:24.830Z,4.07
2018-04-08T23:21:51.239Z,3.63
2018-04-08T23:24:17.576Z,4.50
2018-04-08T23:26:43.925Z,4.00
2018-04-08T23:29:10.346Z,3.83
2018-04-08T23:31:36.666Z,4.00
2018-04-08T23:34:03.045Z,4.10
2018-04-08T23:36:29.434Z,4.33
2018-04-08T23:38:55.755Z,4.13
2018-04-08T23:41:22.122Z,3.90
2018-04-08T23:43:48.451Z,4.00
2018-04-08T23:46:14.778Z,4.20
2018-04-08T23:48:41.178Z,4.33
2018-04-08T23:51:07.579Z,4.10
2018-04-08T23:53:33.905Z,4.90
2018-04-08T23:56:00.277Z,3.63
2018-04-08T23:58:26.607Z,3.63
